sensor_id;sensor_type;location;lat;lon;timestamp;pressure;altitude;pressure_sealevel;temperature;humidity
13456;BME280;6800;50.940;6.940;2023-06-22T00:01:16;100953.72;;;35.44;27.52
13456;BME280;6800;50.940;6.940;2023-06-22T00:05:18;100955.63;;;33.99;29.29
13456;BME280;6800;50.940;6.940;2023-06-22T00:09:19;100958.22;;;35.10;27.79
13456;BME280;6800;50.940;6.940;2023-06-22T00:13:21;100970.72;;;35.51;27.47
13456;BME280;6800;50.940;6.940;2023-06-22T00:17:22;100967.88;;;35.74;26.71
13456;BME280;6800;50.940;6.940;2023-06-22T00:21:23;100967.69;;;35.64;27.35
13456;BME280;6800;50.940;6.940;2023-06-22T00:25:25;100968.16;;;34.81;28.08
13456;BME280;6800;50.940;6.940;2023-06-22T00:29:27;100978.72;;;35.17;28.26
13456;BME280;6800;50.940;6.940;2023-06-22T00:33:28;100968.72;;;35.91;26.86
13456;BME280;6800;50.940;6.940;2023-06-22T00:37:30;100954.34;;;36.07;26.54
13456;BME280;6800;50.940;6.940;2023-06-22T00:41:31;100971.16;;;36.04;26.40
13456;BME280;6800;50.940;6.940;2023-06-22T00:45:33;100973.84;;;35.31;27.78
13456;BME280;6800;50.940;6.940;2023-06-22T00:49:34;100966.63;;;36.43;26.16
13456;BME280;6800;50.940;6.940;2023-06-22T00:53:36;100969.00;;;35.61;27.08
13456;BME280;6800;50.940;6.940;2023-06-22T00:57:38;100977.81;;;34.42;28.45
13456;BME280;6800;50.940;6.940;2023-06-22T01:01:40;100976.19;;;34.88;28.15
13456;BME280;6800;50.940;6.940;2023-06-22T01:05:42;100958.09;;;35.73;27.31
13456;BME280;6800;50.940;6.940;2023-06-22T01:10:03;100960.50;;;34.67;28.55
13456;BME280;6800;50.940;6.940;2023-06-22T01:14:11;100958.25;;;35.83;26.57
13456;BME280;6800;50.940;6.940;2023-06-22T01:18:14;100953.31;;;35.23;26.93
13456;BME280;6800;50.940;6.940;2023-06-22T01:22:17;100959.31;;;34.74;28.62
13456;BME280;6800;50.940;6.940;2023-06-22T01:26:32;100947.66;;;34.74;28.31
13456;BME280;6800;50.940;6.940;2023-06-22T01:30:36;100940.13;;;34.52;28.36
13456;BME280;6800;50.940;6.940;2023-06-22T01:34:41;100929.75;;;35.85;26.89
13456;BME280;6800;50.940;6.940;2023-06-22T01:38:44;100930.16;;;35.61;26.58
13456;BME280;6800;50.940;6.940;2023-06-22T01:42:48;100927.44;;;35.61;26.97
13456;BME280;6800;50.940;6.940;2023-06-22T01:46:50;100918.69;;;35.30;27.20
13456;BME280;6800;50.940;6.940;2023-06-22T01:50:55;100924.78;;;34.98;27.57
13456;BME280;6800;50.940;6.940;2023-06-22T01:54:56;100918.38;;;33.53;29.99
13456;BME280;6800;50.940;6.940;2023-06-22T01:59:01;100919.00;;;33.67;29.67
13456;BME280;6800;50.940;6.940;2023-06-22T02:03:10;100917.63;;;33.76;29.69
13456;BME280;6800;50.940;6.940;2023-06-22T02:07:15;100916.56;;;35.33;27.59
13456;BME280;6800;50.940;6.940;2023-06-22T02:11:19;100914.47;;;35.96;26.57
13456;BME280;6800;50.940;6.940;2023-06-22T02:15:21;100911.28;;;35.26;27.82
13456;BME280;6800;50.940;6.940;2023-06-22T02:19:23;100909.78;;;34.55;28.61
13456;BME280;6800;50.940;6.940;2023-06-22T02:23:25;100913.16;;;35.25;27.65
13456;BME280;6800;50.940;6.940;2023-06-22T02:27:27;100914.63;;;34.19;28.84
13456;BME280;6800;50.940;6.940;2023-06-22T02:31:28;100908.03;;;36.02;26.24
13456;BME280;6800;50.940;6.940;2023-06-22T02:35:32;100912.16;;;32.87;30.93
13456;BME280;6800;50.940;6.940;2023-06-22T02:39:37;100901.66;;;34.09;29.39
13456;BME280;6800;50.940;6.940;2023-06-22T02:43:38;100903.28;;;33.16;30.49
13456;BME280;6800;50.940;6.940;2023-06-22T02:47:40;100896.22;;;34.44;28.90
13456;BME280;6800;50.940;6.940;2023-06-22T02:51:47;100895.13;;;34.68;28.67
13456;BME280;6800;50.940;6.940;2023-06-22T02:55:49;100894.91;;;34.46;28.42
13456;BME280;6800;50.940;6.940;2023-06-22T02:59:50;100885.69;;;36.00;26.81
13456;BME280;6800;50.940;6.940;2023-06-22T03:03:52;100875.72;;;35.27;27.50
13456;BME280;6800;50.940;6.940;2023-06-22T03:07:54;100872.97;;;35.11;27.28
13456;BME280;6800;50.940;6.940;2023-06-22T03:11:55;100876.69;;;35.50;26.64
13456;BME280;6800;50.940;6.940;2023-06-22T03:15:57;100879.72;;;35.25;27.19
13456;BME280;6800;50.940;6.940;2023-06-22T03:19:58;100871.50;;;35.48;27.59
13456;BME280;6800;50.940;6.940;2023-06-22T03:23:59;100876.78;;;36.04;26.33
13456;BME280;6800;50.940;6.940;2023-06-22T03:28:01;100874.97;;;36.10;26.35
13456;BME280;6800;50.940;6.940;2023-06-22T03:32:03;100868.53;;;35.99;27.11
13456;BME280;6800;50.940;6.940;2023-06-22T03:36:06;100863.19;;;35.88;26.59
13456;BME280;6800;50.940;6.940;2023-06-22T03:40:08;100853.97;;;35.56;27.68
13456;BME280;6800;50.940;6.940;2023-06-22T03:44:10;100856.75;;;35.94;26.82
13456;BME280;6800;50.940;6.940;2023-06-22T03:48:13;100858.41;;;35.62;27.44
13456;BME280;6800;50.940;6.940;2023-06-22T03:52:14;100856.22;;;35.30;27.91
13456;BME280;6800;50.940;6.940;2023-06-22T03:56:16;100844.06;;;35.83;27.14
13456;BME280;6800;50.940;6.940;2023-06-22T04:00:21;100845.38;;;35.97;27.06
13456;BME280;6800;50.940;6.940;2023-06-22T04:04:22;100847.84;;;35.65;27.60
13456;BME280;6800;50.940;6.940;2023-06-22T04:08:24;100849.47;;;36.16;26.97
13456;BME280;6800;50.940;6.940;2023-06-22T04:12:25;100842.00;;;36.45;27.34
13456;BME280;6800;50.940;6.940;2023-06-22T04:16:27;100838.47;;;36.44;26.54
13456;BME280;6800;50.940;6.940;2023-06-22T04:20:28;100835.06;;;35.82;27.73
13456;BME280;6800;50.940;6.940;2023-06-22T04:24:30;100836.59;;;36.28;27.27
13456;BME280;6800;50.940;6.940;2023-06-22T04:28:32;100838.16;;;36.02;28.03
13456;BME280;6800;50.940;6.940;2023-06-22T04:32:36;100848.94;;;36.36;28.24
13456;BME280;6800;50.940;6.940;2023-06-22T04:36:41;100848.38;;;35.62;28.69
13456;BME280;6800;50.940;6.940;2023-06-22T04:40:42;100841.09;;;36.18;28.22
13456;BME280;6800;50.940;6.940;2023-06-22T04:44:44;100854.16;;;35.99;28.87
13456;BME280;6800;50.940;6.940;2023-06-22T04:48:45;100866.31;;;36.51;28.29
13456;BME280;6800;50.940;6.940;2023-06-22T04:52:47;100863.22;;;36.64;27.98
13456;BME280;6800;50.940;6.940;2023-06-22T04:56:48;100853.63;;;35.69;29.88
13456;BME280;6800;50.940;6.940;2023-06-22T05:00:57;100849.59;;;36.43;28.83
13456;BME280;6800;50.940;6.940;2023-06-22T05:04:59;100855.91;;;36.10;29.91
13456;BME280;6800;50.940;6.940;2023-06-22T05:09:00;100868.25;;;36.34;29.20
13456;BME280;6800;50.940;6.940;2023-06-22T05:13:02;100859.22;;;36.50;28.98
13456;BME280;6800;50.940;6.940;2023-06-22T05:17:03;100864.84;;;36.65;29.14
13456;BME280;6800;50.940;6.940;2023-06-22T05:21:05;100850.94;;;36.84;29.15
13456;BME280;6800;50.940;6.940;2023-06-22T05:25:09;100850.22;;;36.93;28.87
13456;BME280;6800;50.940;6.940;2023-06-22T05:29:10;100843.84;;;36.23;29.72
13456;BME280;6800;50.940;6.940;2023-06-22T05:33:12;100841.41;;;36.21;30.33
13456;BME280;6800;50.940;6.940;2023-06-22T05:37:13;100851.88;;;36.51;30.28
13456;BME280;6800;50.940;6.940;2023-06-22T05:41:15;100841.75;;;35.42;32.23
13456;BME280;6800;50.940;6.940;2023-06-22T05:45:16;100848.13;;;37.00;29.57
13456;BME280;6800;50.940;6.940;2023-06-22T05:49:17;100846.19;;;37.54;28.82
13456;BME280;6800;50.940;6.940;2023-06-22T05:53:19;100855.22;;;37.86;28.05
13456;BME280;6800;50.940;6.940;2023-06-22T05:57:20;100849.72;;;38.23;27.57
13456;BME280;6800;50.940;6.940;2023-06-22T06:01:22;100847.31;;;38.93;26.69
13456;BME280;6800;50.940;6.940;2023-06-22T06:05:24;100857.81;;;39.32;26.57
13456;BME280;6800;50.940;6.940;2023-06-22T06:09:26;100859.44;;;39.98;25.10
13456;BME280;6800;50.940;6.940;2023-06-22T06:13:28;100857.78;;;39.92;24.73
13456;BME280;6800;50.940;6.940;2023-06-22T06:17:29;100857.53;;;39.73;25.65
13456;BME280;6800;50.940;6.940;2023-06-22T06:21:31;100860.81;;;39.91;25.96
13456;BME280;6800;50.940;6.940;2023-06-22T06:25:32;100862.44;;;40.07;25.24
13456;BME280;6800;50.940;6.940;2023-06-22T06:29:33;100870.66;;;40.07;25.70
13456;BME280;6800;50.940;6.940;2023-06-22T06:33:35;100869.03;;;39.96;25.85
13456;BME280;6800;50.940;6.940;2023-06-22T06:37:39;100875.56;;;40.94;24.67
13456;BME280;6800;50.940;6.940;2023-06-22T06:41:40;100877.94;;;41.54;24.07
13456;BME280;6800;50.940;6.940;2023-06-22T06:45:41;100865.44;;;40.94;24.75
13456;BME280;6800;50.940;6.940;2023-06-22T06:49:43;100862.88;;;40.49;24.84
13456;BME280;6800;50.940;6.940;2023-06-22T06:53:45;100849.13;;;41.13;23.96
13456;BME280;6800;50.940;6.940;2023-06-22T06:57:46;100846.84;;;40.86;24.38
13456;BME280;6800;50.940;6.940;2023-06-22T07:01:49;100840.56;;;40.02;25.34
13456;BME280;6800;50.940;6.940;2023-06-22T07:05:51;100841.38;;;39.37;26.48
13456;BME280;6800;50.940;6.940;2023-06-22T07:09:52;100837.56;;;39.98;26.19
13456;BME280;6800;50.940;6.940;2023-06-22T07:13:53;100826.31;;;40.10;25.43
13456;BME280;6800;50.940;6.940;2023-06-22T07:17:55;100813.63;;;42.41;22.86
13456;BME280;6800;50.940;6.940;2023-06-22T07:21:56;100807.81;;;42.66;22.83
13456;BME280;6800;50.940;6.940;2023-06-22T07:25:58;100802.13;;;45.09;20.45
13456;BME280;6800;50.940;6.940;2023-06-22T07:30:04;100809.66;;;43.27;21.62
13456;BME280;6800;50.940;6.940;2023-06-22T07:34:05;100810.16;;;40.13;25.18
13456;BME280;6800;50.940;6.940;2023-06-22T07:38:07;100798.66;;;40.70;24.92
13456;BME280;6800;50.940;6.940;2023-06-22T07:42:08;100793.28;;;39.66;25.89
13456;BME280;6800;50.940;6.940;2023-06-22T07:46:10;100783.28;;;40.84;24.14
13456;BME280;6800;50.940;6.940;2023-06-22T07:50:12;100775.41;;;41.45;23.87
13456;BME280;6800;50.940;6.940;2023-06-22T07:54:13;100774.34;;;41.41;24.00
13456;BME280;6800;50.940;6.940;2023-06-22T07:58:16;100774.00;;;42.05;23.34
13456;BME280;6800;50.940;6.940;2023-06-22T08:02:20;100771.41;;;40.94;24.65
13456;BME280;6800;50.940;6.940;2023-06-22T08:06:21;100776.44;;;40.23;25.72
13456;BME280;6800;50.940;6.940;2023-06-22T08:10:23;100762.88;;;39.83;26.03
13456;BME280;6800;50.940;6.940;2023-06-22T08:14:25;100759.09;;;43.23;22.26
13456;BME280;6800;50.940;6.940;2023-06-22T08:18:27;100739.88;;;40.96;24.60
13456;BME280;6800;50.940;6.940;2023-06-22T08:22:29;100738.84;;;41.78;24.35
13456;BME280;6800;50.940;6.940;2023-06-22T08:26:31;100726.34;;;41.91;23.76
13456;BME280;6800;50.940;6.940;2023-06-22T08:30:37;100726.78;;;43.47;21.92
13456;BME280;6800;50.940;6.940;2023-06-22T08:34:38;100713.09;;;45.48;20.04
13456;BME280;6800;50.940;6.940;2023-06-22T08:38:43;100720.59;;;41.06;24.81
13456;BME280;6800;50.940;6.940;2023-06-22T08:42:46;100710.59;;;42.44;22.83
13456;BME280;6800;50.940;6.940;2023-06-22T08:46:47;100717.25;;;41.95;23.22
13456;BME280;6800;50.940;6.940;2023-06-22T08:50:52;100711.91;;;44.16;21.02
13456;BME280;6800;50.940;6.940;2023-06-22T08:54:56;100694.22;;;45.41;19.55
13456;BME280;6800;50.940;6.940;2023-06-22T08:59:00;100681.06;;;42.87;22.35
13456;BME280;6800;50.940;6.940;2023-06-22T09:03:01;100687.78;;;44.71;20.89
13456;BME280;6800;50.940;6.940;2023-06-22T09:07:04;100683.38;;;44.70;20.97
13456;BME280;6800;50.940;6.940;2023-06-22T09:11:05;100669.97;;;44.55;20.71
13456;BME280;6800;50.940;6.940;2023-06-22T09:15:07;100664.47;;;39.47;26.93
13456;BME280;6800;50.940;6.940;2023-06-22T09:19:13;100662.13;;;41.92;23.58
13456;BME280;6800;50.940;6.940;2023-06-22T09:23:15;100664.41;;;43.56;21.94
13456;BME280;6800;50.940;6.940;2023-06-22T09:27:16;100645.50;;;42.02;23.38
13456;BME280;6800;50.940;6.940;2023-06-22T09:31:18;100641.59;;;43.28;21.95
13456;BME280;6800;50.940;6.940;2023-06-22T09:35:26;100632.28;;;39.09;27.22
13456;BME280;6800;50.940;6.940;2023-06-22T09:39:28;100625.31;;;39.72;27.06
13456;BME280;6800;50.940;6.940;2023-06-22T09:43:32;100626.22;;;40.89;25.25
13456;BME280;6800;50.940;6.940;2023-06-22T09:47:36;100634.13;;;43.83;21.47
13456;BME280;6800;50.940;6.940;2023-06-22T09:51:37;100632.16;;;44.33;20.43
13456;BME280;6800;50.940;6.940;2023-06-22T09:55:39;100621.31;;;42.04;23.53
13456;BME280;6800;50.940;6.940;2023-06-22T09:59:41;100624.03;;;42.79;22.68
13456;BME280;6800;50.940;6.940;2023-06-22T10:03:42;100624.47;;;42.86;22.33
13456;BME280;6800;50.940;6.940;2023-06-22T10:07:44;100626.31;;;42.58;22.55
13456;BME280;6800;50.940;6.940;2023-06-22T10:11:46;100647.75;;;41.53;24.37
13456;BME280;6800;50.940;6.940;2023-06-22T10:15:47;100675.06;;;41.10;24.66
13456;BME280;6800;50.940;6.940;2023-06-22T10:19:52;100687.25;;;40.17;25.63
13456;BME280;6800;50.940;6.940;2023-06-22T10:23:54;100702.75;;;40.31;25.94
13456;BME280;6800;50.940;6.940;2023-06-22T10:27:55;100710.25;;;40.60;26.07
13456;BME280;6800;50.940;6.940;2023-06-22T10:31:56;100712.56;;;40.81;27.73
13456;BME280;6800;50.940;6.940;2023-06-22T10:35:58;100727.78;;;40.15;28.50
13456;BME280;6800;50.940;6.940;2023-06-22T10:39:59;100736.41;;;39.63;30.70
13456;BME280;6800;50.940;6.940;2023-06-22T10:44:01;100748.19;;;39.23;31.97
13456;BME280;6800;50.940;6.940;2023-06-22T10:48:02;100747.34;;;39.18;33.52
13456;BME280;6800;50.940;6.940;2023-06-22T10:52:07;100751.16;;;39.01;34.19
13456;BME280;6800;50.940;6.940;2023-06-22T10:56:09;100750.59;;;38.74;35.12
13456;BME280;6800;50.940;6.940;2023-06-22T11:00:11;100755.88;;;38.29;36.94
13456;BME280;6800;50.940;6.940;2023-06-22T11:04:13;100759.78;;;37.91;37.13
13456;BME280;6800;50.940;6.940;2023-06-22T11:08:14;100762.84;;;38.00;37.29
13456;BME280;6800;50.940;6.940;2023-06-22T11:12:16;100730.19;;;37.00;39.21
13456;BME280;6800;50.940;6.940;2023-06-22T11:16:17;100687.47;;;36.03;41.64
13456;BME280;6800;50.940;6.940;2023-06-22T11:20:19;100692.38;;;36.76;43.63
13456;BME280;6800;50.940;6.940;2023-06-22T11:24:21;100701.97;;;36.09;44.19
13456;BME280;6800;50.940;6.940;2023-06-22T11:28:22;100697.28;;;36.26;42.75
13456;BME280;6800;50.940;6.940;2023-06-22T11:32:24;100664.66;;;35.28;45.28
13456;BME280;6800;50.940;6.940;2023-06-22T11:36:26;100665.78;;;36.84;42.87
13456;BME280;6800;50.940;6.940;2023-06-22T11:40:27;100636.25;;;35.52;44.55
13456;BME280;6800;50.940;6.940;2023-06-22T11:44:29;100556.41;;;33.24;49.54
13456;BME280;6800;50.940;6.940;2023-06-22T11:48:30;100555.25;;;35.49;44.49
13456;BME280;6800;50.940;6.940;2023-06-22T11:52:33;100578.09;;;35.53;44.77
13456;BME280;6800;50.940;6.940;2023-06-22T11:56:34;100578.41;;;35.57;44.89
13456;BME280;6800;50.940;6.940;2023-06-22T12:00:36;100589.56;;;37.30;40.90
13456;BME280;6800;50.940;6.940;2023-06-22T12:04:51;100594.38;;;36.76;41.22
13456;BME280;6800;50.940;6.940;2023-06-22T12:08:53;100577.66;;;37.00;40.16
13456;BME280;6800;50.940;6.940;2023-06-22T12:12:55;100578.75;;;37.40;40.30
13456;BME280;6800;50.940;6.940;2023-06-22T12:16:56;100577.66;;;35.40;44.21
13456;BME280;6800;50.940;6.940;2023-06-22T12:20:58;100562.34;;;36.25;41.67
13456;BME280;6800;50.940;6.940;2023-06-22T12:25:00;100545.97;;;36.84;40.47
13456;BME280;6800;50.940;6.940;2023-06-22T12:29:01;100561.19;;;35.29;42.79
13456;BME280;6800;50.940;6.940;2023-06-22T12:33:02;100556.28;;;34.72;44.23
13456;BME280;6800;50.940;6.940;2023-06-22T12:37:04;100534.91;;;34.42;46.56
13456;BME280;6800;50.940;6.940;2023-06-22T12:41:07;100525.44;;;35.81;42.21
13456;BME280;6800;50.940;6.940;2023-06-22T12:45:08;100508.13;;;35.65;42.97
13456;BME280;6800;50.940;6.940;2023-06-22T12:49:10;100506.63;;;36.64;40.23
13456;BME280;6800;50.940;6.940;2023-06-22T12:53:12;100506.06;;;36.62;39.67
13456;BME280;6800;50.940;6.940;2023-06-22T12:57:13;100504.16;;;35.73;41.03
13456;BME280;6800;50.940;6.940;2023-06-22T13:01:15;100506.41;;;34.94;42.33
13456;BME280;6800;50.940;6.940;2023-06-22T13:05:16;100494.78;;;35.59;40.22
13456;BME280;6800;50.940;6.940;2023-06-22T13:09:18;100476.69;;;35.26;41.92
13456;BME280;6800;50.940;6.940;2023-06-22T13:13:25;100473.75;;;36.02;40.99
13456;BME280;6800;50.940;6.940;2023-06-22T13:17:28;100465.03;;;35.47;40.60
13456;BME280;6800;50.940;6.940;2023-06-22T13:21:30;100465.16;;;34.76;42.13
13456;BME280;6800;50.940;6.940;2023-06-22T13:25:32;100445.09;;;34.98;42.20
13456;BME280;6800;50.940;6.940;2023-06-22T13:29:33;100447.66;;;35.48;41.63
13456;BME280;6800;50.940;6.940;2023-06-22T13:33:35;100439.97;;;35.72;39.73
13456;BME280;6800;50.940;6.940;2023-06-22T13:37:36;100427.03;;;36.89;37.51
13456;BME280;6800;50.940;6.940;2023-06-22T13:41:38;100404.94;;;37.98;35.98
13456;BME280;6800;50.940;6.940;2023-06-22T13:45:39;100392.06;;;36.29;37.26
13456;BME280;6800;50.940;6.940;2023-06-22T13:49:40;100392.81;;;37.13;36.35
13456;BME280;6800;50.940;6.940;2023-06-22T13:53:42;100382.47;;;37.15;35.69
13456;BME280;6800;50.940;6.940;2023-06-22T13:57:43;100364.97;;;36.96;36.53
13456;BME280;6800;50.940;6.940;2023-06-22T14:01:45;100354.19;;;37.41;36.09
13456;BME280;6800;50.940;6.940;2023-06-22T14:05:46;100313.94;;;38.68;34.43
13456;BME280;6800;50.940;6.940;2023-06-22T14:09:48;100308.03;;;36.95;36.14
13456;BME280;6800;50.940;6.940;2023-06-22T14:13:49;100322.84;;;37.49;35.47
13456;BME280;6800;50.940;6.940;2023-06-22T14:17:51;100315.47;;;36.42;35.45
13456;BME280;6800;50.940;6.940;2023-06-22T14:21:53;100310.88;;;36.01;36.48
13456;BME280;6800;50.940;6.940;2023-06-22T14:25:54;100295.41;;;36.73;35.58
13456;BME280;6800;50.940;6.940;2023-06-22T14:29:56;100266.41;;;35.85;36.12
13456;BME280;6800;50.940;6.940;2023-06-22T14:33:57;100265.00;;;36.25;35.95
13456;BME280;6800;50.940;6.940;2023-06-22T14:37:59;100275.91;;;37.02;34.94
13456;BME280;6800;50.940;6.940;2023-06-22T14:42:01;100279.03;;;36.53;35.78
13456;BME280;6800;50.940;6.940;2023-06-22T14:46:02;100282.22;;;37.27;34.50
13456;BME280;6800;50.940;6.940;2023-06-22T14:50:04;100245.00;;;38.22;33.33
13456;BME280;6800;50.940;6.940;2023-06-22T14:54:05;100254.66;;;36.94;35.00
13456;BME280;6800;50.940;6.940;2023-06-22T14:58:07;100239.88;;;36.59;37.54
13456;BME280;6800;50.940;6.940;2023-06-22T15:02:08;100214.06;;;36.00;39.38
13456;BME280;6800;50.940;6.940;2023-06-22T15:06:09;100210.81;;;36.08;39.26
13456;BME280;6800;50.940;6.940;2023-06-22T15:10:11;100234.25;;;34.77;42.87
13456;BME280;6800;50.940;6.940;2023-06-22T15:14:13;100259.16;;;35.96;40.84
13456;BME280;6800;50.940;6.940;2023-06-22T15:18:15;100261.56;;;36.39;40.57
13456;BME280;6800;50.940;6.940;2023-06-22T15:22:17;100209.38;;;33.77;47.78
13456;BME280;6800;50.940;6.940;2023-06-22T15:26:20;100191.06;;;34.27;47.17
13456;BME280;6800;50.940;6.940;2023-06-22T15:30:22;100204.56;;;34.01;46.63
13456;BME280;6800;50.940;6.940;2023-06-22T15:34:23;100223.88;;;34.26;46.74
13456;BME280;6800;50.940;6.940;2023-06-22T15:38:24;100194.72;;;33.56;46.78
13456;BME280;6800;50.940;6.940;2023-06-22T15:42:26;100180.16;;;32.96;48.98
13456;BME280;6800;50.940;6.940;2023-06-22T15:46:27;100171.41;;;32.72;49.94
13456;BME280;6800;50.940;6.940;2023-06-22T15:50:28;100180.19;;;34.22;45.69
13456;BME280;6800;50.940;6.940;2023-06-22T15:54:30;100176.78;;;35.49;43.43
13456;BME280;6800;50.940;6.940;2023-06-22T15:58:31;100171.97;;;34.97;45.81
13456;BME280;6800;50.940;6.940;2023-06-22T16:02:33;100153.69;;;34.29;46.79
13456;BME280;6800;50.940;6.940;2023-06-22T16:06:35;100144.91;;;34.44;46.36
13456;BME280;6800;50.940;6.940;2023-06-22T16:10:38;100155.66;;;35.61;43.93
13456;BME280;6800;50.940;6.940;2023-06-22T16:14:40;100136.81;;;34.22;46.24
13456;BME280;6800;50.940;6.940;2023-06-22T16:18:43;100117.69;;;33.69;47.51
13456;BME280;6800;50.940;6.940;2023-06-22T16:22:44;100103.41;;;33.35;47.62
13456;BME280;6800;50.940;6.940;2023-06-22T16:26:47;100082.19;;;34.40;45.11
13456;BME280;6800;50.940;6.940;2023-06-22T16:30:49;100076.34;;;33.78;46.51
13456;BME280;6800;50.940;6.940;2023-06-22T16:34:53;100079.91;;;35.22;43.65
13456;BME280;6800;50.940;6.940;2023-06-22T16:38:55;100102.91;;;36.14;41.43
13456;BME280;6800;50.940;6.940;2023-06-22T16:42:56;100075.69;;;35.47;41.61
13456;BME280;6800;50.940;6.940;2023-06-22T16:46:58;100063.63;;;35.79;41.11
13456;BME280;6800;50.940;6.940;2023-06-22T16:51:00;100070.44;;;35.82;41.06
13456;BME280;6800;50.940;6.940;2023-06-22T16:55:01;100065.41;;;36.76;39.55
13456;BME280;6800;50.940;6.940;2023-06-22T16:59:06;100084.75;;;37.05;39.18
13456;BME280;6800;50.940;6.940;2023-06-22T17:03:11;100089.94;;;36.71;39.18
13456;BME280;6800;50.940;6.940;2023-06-22T17:07:18;100104.63;;;36.50;40.18
13456;BME280;6800;50.940;6.940;2023-06-22T17:11:20;100094.00;;;36.53;39.13
13456;BME280;6800;50.940;6.940;2023-06-22T17:15:22;100098.34;;;36.69;39.50
13456;BME280;6800;50.940;6.940;2023-06-22T17:19:23;100106.53;;;37.05;39.11
13456;BME280;6800;50.940;6.940;2023-06-22T17:23:26;100113.06;;;36.89;38.31
13456;BME280;6800;50.940;6.940;2023-06-22T17:27:29;100105.19;;;37.07;38.21
13456;BME280;6800;50.940;6.940;2023-06-22T17:31:38;100101.63;;;36.66;38.68
13456;BME280;6800;50.940;6.940;2023-06-22T17:35:48;100103.22;;;37.28;38.10
13456;BME280;6800;50.940;6.940;2023-06-22T17:39:53;100096.72;;;36.68;38.58
13456;BME280;6800;50.940;6.940;2023-06-22T17:43:57;100097.25;;;36.50;39.38
13456;BME280;6800;50.940;6.940;2023-06-22T17:47:58;100112.63;;;35.94;40.10
13456;BME280;6800;50.940;6.940;2023-06-22T17:52:00;100123.31;;;36.21;39.85
13456;BME280;6800;50.940;6.940;2023-06-22T17:56:01;100108.78;;;35.39;40.76
13456;BME280;6800;50.940;6.940;2023-06-22T18:00:07;100116.03;;;35.70;40.64
13456;BME280;6800;50.940;6.940;2023-06-22T18:04:14;100113.63;;;35.78;40.49
13456;BME280;6800;50.940;6.940;2023-06-22T18:08:19;100109.75;;;35.64;40.27
13456;BME280;6800;50.940;6.940;2023-06-22T18:12:23;100110.47;;;36.07;39.71
13456;BME280;6800;50.940;6.940;2023-06-22T18:16:26;100098.75;;;35.96;39.68
13456;BME280;6800;50.940;6.940;2023-06-22T18:20:28;100087.75;;;36.43;39.56
13456;BME280;6800;50.940;6.940;2023-06-22T18:24:33;100081.56;;;35.85;40.15
13456;BME280;6800;50.940;6.940;2023-06-22T18:28:34;100082.34;;;35.76;39.83
13456;BME280;6800;50.940;6.940;2023-06-22T18:32:39;100091.00;;;35.21;40.19
13456;BME280;6800;50.940;6.940;2023-06-22T18:36:49;100118.75;;;35.65;39.54
13456;BME280;6800;50.940;6.940;2023-06-22T18:40:52;100102.97;;;35.72;39.06
13456;BME280;6800;50.940;6.940;2023-06-22T18:44:54;100098.75;;;35.44;39.66
13456;BME280;6800;50.940;6.940;2023-06-22T18:49:00;100088.09;;;34.96;40.09
13456;BME280;6800;50.940;6.940;2023-06-22T18:53:03;100113.31;;;34.60;40.33
13456;BME280;6800;50.940;6.940;2023-06-22T18:57:25;100117.03;;;35.12;39.09
13456;BME280;6800;50.940;6.940;2023-06-22T19:01:30;100107.00;;;34.27;40.20
13456;BME280;6800;50.940;6.940;2023-06-22T19:05:41;100114.19;;;34.38;40.71
13456;BME280;6800;50.940;6.940;2023-06-22T19:14:22;100155.31;;;33.87;42.06
13456;BME280;6800;50.940;6.940;2023-06-22T19:18:25;100181.28;;;33.61;42.64
13456;BME280;6800;50.940;6.940;2023-06-22T19:22:58;100180.41;;;32.94;43.17
13456;BME280;6800;50.940;6.940;2023-06-22T19:26:59;100201.94;;;32.73;43.40
13456;BME280;6800;50.940;6.940;2023-06-22T19:31:01;100221.78;;;33.06;42.81
13456;BME280;6800;50.940;6.940;2023-06-22T19:35:05;100234.59;;;32.03;44.65
13456;BME280;6800;50.940;6.940;2023-06-22T19:39:06;100253.50;;;32.03;44.94
13456;BME280;6800;50.940;6.940;2023-06-22T19:43:08;100291.19;;;31.75;45.30
13456;BME280;6800;50.940;6.940;2023-06-22T19:47:09;100291.75;;;32.35;44.36
13456;BME280;6800;50.940;6.940;2023-06-22T19:51:11;100301.75;;;31.53;46.11
13456;BME280;6800;50.940;6.940;2023-06-22T19:55:13;100311.63;;;31.60;45.80
13456;BME280;6800;50.940;6.940;2023-06-22T19:59:21;100321.22;;;30.30;47.32
13456;BME280;6800;50.940;6.940;2023-06-22T20:03:36;100323.38;;;30.76;46.50
13456;BME280;6800;50.940;6.940;2023-06-22T20:07:42;100351.84;;;30.11;47.44
13456;BME280;6800;50.940;6.940;2023-06-22T20:11:44;100352.06;;;30.52;45.23
13456;BME280;6800;50.940;6.940;2023-06-22T20:15:46;100366.97;;;30.55;45.29
13456;BME280;6800;50.940;6.940;2023-06-22T20:19:53;100368.03;;;30.54;45.18
13456;BME280;6800;50.940;6.940;2023-06-22T20:23:54;100386.41;;;29.65;46.45
13456;BME280;6800;50.940;6.940;2023-06-22T20:27:56;100398.78;;;29.97;45.73
13456;BME280;6800;50.940;6.940;2023-06-22T20:32:08;100390.47;;;29.43;46.58
13456;BME280;6800;50.940;6.940;2023-06-22T20:36:10;100385.94;;;29.68;45.32
13456;BME280;6800;50.940;6.940;2023-06-22T20:40:14;100394.38;;;29.78;45.43
13456;BME280;6800;50.940;6.940;2023-06-22T20:44:16;100402.22;;;30.29;44.91
13456;BME280;6800;50.940;6.940;2023-06-22T20:48:17;100406.41;;;30.25;44.65
13456;BME280;6800;50.940;6.940;2023-06-22T20:52:38;100415.81;;;29.91;45.77
13456;BME280;6800;50.940;6.940;2023-06-22T20:56:43;100410.50;;;30.34;45.46
13456;BME280;6800;50.940;6.940;2023-06-22T21:00:45;100426.50;;;30.53;45.11
13456;BME280;6800;50.940;6.940;2023-06-22T21:04:47;100456.81;;;30.24;45.31
13456;BME280;6800;50.940;6.940;2023-06-22T21:08:50;100469.16;;;30.56;44.48
13456;BME280;6800;50.940;6.940;2023-06-22T21:12:51;100471.84;;;30.56;44.28
13456;BME280;6800;50.940;6.940;2023-06-22T21:16:53;100467.69;;;30.36;45.17
13456;BME280;6800;50.940;6.940;2023-06-22T21:20:54;100496.69;;;30.40;44.69
13456;BME280;6800;50.940;6.940;2023-06-22T21:25:13;100515.09;;;30.12;44.81
13456;BME280;6800;50.940;6.940;2023-06-22T21:29:15;100542.50;;;30.65;44.37